.
WxDataArchive / Data Records for 2013-02-24
2013-02-23 February 2013 2013-02-25

Data Records for Sunday, 24 February 2013

Time	Temp	Chill	HIndex	Humid	Dewpt	 Wind 	HiWind	WindDir	Rain 	Barom 
-----	----	-----	------	-----	-----	------	------	-------	-----	----- 
00:00	25.7	25.7	25.7	74	18.6	1	2	248	0.00	29.969 
00:05	25.7	25.7	25.7	74	18.6	1	2	248	0.00	29.969 
00:10	25.7	25.7	25.7	74	18.6	1	3	248	0.00	29.969 
00:15	25.7	25.7	25.7	74	18.6	2	4	270	0.00	29.968 
00:20	25.7	25.7	25.7	74	18.6	1	4	248	0.00	29.968 
00:25	25.7	25.7	25.7	74	18.6	2	5	248	0.00	29.968 
00:30	25.6	25.6	25.6	74	18.5	2	5	270	0.00	29.968 
00:35	25.6	25.6	25.6	74	18.5	2	4	248	0.00	29.968 
00:40	25.6	25.6	25.6	74	18.5	1	4	248	0.00	29.968 
00:45	25.6	25.6	25.6	73	18.2	1	3	292	0.00	29.969 
00:50	25.6	25.6	25.6	73	18.2	2	3	248	0.00	29.969 
00:55	25.6	25.6	25.6	74	18.5	2	3	248	0.00	29.969 
01:00	25.6	25.6	25.6	74	18.5	1	3	248	0.00	29.972 
01:05	25.6	25.6	25.6	74	18.5	2	3	270	0.00	29.972 
01:10	25.4	25.4	25.4	74	18.3	1	4	248	0.00	29.972 
01:15	25.4	25.4	25.4	74	18.3	1	5	248	0.00	29.972 
01:20	25.4	25.4	25.4	74	18.3	1	3	248	0.00	29.972 
01:25	25.4	25.4	25.4	75	18.6	1	5	248	0.00	29.972 
01:30	25.4	25.4	25.4	75	18.6	1	4	248	0.00	29.983 
01:35	25.4	25.4	25.4	75	18.6	1	3	248	0.00	29.983 
01:40	25.4	25.4	25.4	74	18.3	1	3	248	0.00	29.983 
01:45	25.4	25.4	25.4	74	18.3	1	4	270	0.00	29.984 
01:50	25.4	25.4	25.4	73	18.0	1	3	292	0.00	29.984 
01:55	25.4	25.4	25.4	73	18.0	1	3	292	0.00	29.984 
02:00	25.4	25.4	25.4	74	18.3	1	4	248	0.00	29.991 
02:05	25.4	25.4	25.4	74	18.3	1	3	248	0.00	29.991 
02:10	25.4	25.4	25.4	73	18.0	1	3	248	0.00	29.991 
02:15	25.4	25.4	25.4	73	18.0	1	3	248	0.00	29.992 
02:20	25.4	25.4	25.4	73	18.0	1	3	270	0.00	29.992 
02:25	25.4	25.4	25.4	73	18.0	0	2	270	0.00	29.992 
02:30	25.4	25.4	25.4	74	18.3	1	4	270	0.00	29.989 
02:35	25.4	25.4	25.4	73	18.0	1	4	315	0.00	29.989 
02:40	25.4	25.4	25.4	73	18.0	1	2	292	0.00	29.989 
02:45	25.6	25.6	25.6	73	18.2	1	2	338	0.00	29.993 
02:50	25.6	25.6	25.6	73	18.2	0	2	248	0.00	29.993 
02:55	25.6	25.6	25.6	73	18.2	1	3	248	0.00	29.993 
03:00	25.6	25.6	25.6	73	18.2	1	2	248	0.00	29.997 
03:05	25.6	25.6	25.6	73	18.2	0	1	248	0.00	29.997 
03:10	25.6	25.6	25.6	73	18.2	0	2	248	0.00	29.997 
03:15	25.6	25.6	25.6	73	18.2	0	2	248	0.00	29.988 
03:20	25.6	25.6	25.6	73	18.2	0	3	248	0.00	29.988 
03:25	25.6	25.6	25.6	73	18.2	1	3	248	0.00	29.988 
03:30	25.7	25.7	25.7	73	18.3	1	2	248	0.00	29.989 
03:35	25.7	25.7	25.7	73	18.3	0	1	248	0.00	29.989 
03:40	25.7	25.7	25.7	73	18.3	0	2	248	0.00	29.989 
03:45	25.7	25.7	25.7	73	18.3	0	2	248	0.00	29.983 
03:50	25.7	25.7	25.7	73	18.3	0	2	248	0.00	29.983 
03:55	25.7	25.7	25.7	73	18.3	0	2	248	0.00	29.983 
04:00	25.7	25.7	25.7	73	18.3	1	2	248	0.00	29.983 
04:05	25.7	25.7	25.7	73	18.3	1	3	248	0.00	29.983 
04:10	25.7	25.7	25.7	73	18.3	1	3	248	0.00	29.983 
04:15	25.8	25.8	25.8	72	18.0	1	4	248	0.00	29.993 
04:20	25.8	25.8	25.8	72	18.0	2	4	248	0.00	29.993 
04:25	25.8	25.8	25.8	72	18.0	1	3	248	0.00	29.993 
04:30	25.8	25.8	25.8	71	17.7	2	4	248	0.00	30.000 
04:35	25.8	25.8	25.8	71	17.7	1	4	248	0.00	30.000 
04:40	25.8	25.8	25.8	71	17.7	1	2	248	0.00	30.000 
04:45	25.8	25.8	25.8	71	17.7	1	3	248	0.00	30.001 
04:50	25.8	25.8	25.8	71	17.7	1	3	248	0.00	30.001 
04:55	25.8	25.8	25.8	71	17.7	1	3	248	0.00	30.001 
05:00	25.8	25.8	25.8	71	17.7	0	2	248	0.00	30.009 
05:05	25.8	25.8	25.8	71	17.7	0	1	248	0.00	30.009 
05:10	25.8	25.8	25.8	71	17.7	1	3	248	0.00	30.009 
05:15	25.8	25.8	25.8	71	17.7	0	1	248	0.00	30.011 
05:20	25.8	25.8	25.8	71	17.7	0	2	248	0.00	30.011 
05:25	25.8	25.8	25.8	71	17.7	0	1	315	0.00	30.011 
05:30	25.8	25.8	25.8	71	17.7	0	1	315	0.00	30.015 
05:35	25.8	25.8	25.8	71	17.7	0	1	315	0.00	30.015 
05:40	25.8	25.8	25.8	71	17.7	0	1	315	0.00	30.015 
05:45	25.8	25.8	25.8	71	17.7	0	2	315	0.00	30.021 
05:50	25.8	25.8	25.8	71	17.7	0	1	315	0.00	30.021 
05:55	25.8	25.8	25.8	71	17.7	0	1	315	0.00	30.021 
06:00	26.0	26.0	26.0	72	18.2	0	1	315	0.00	30.031 
06:05	26.0	26.0	26.0	72	18.2	0	0	---	0.00	30.031 
06:10	26.0	26.0	26.0	72	18.2	0	2	315	0.00	30.031 
06:15	26.0	26.0	26.0	72	18.2	0	1	315	0.00	30.031 
06:20	26.0	26.0	26.0	72	18.2	0	1	315	0.00	30.031 
06:25	26.0	26.0	26.0	72	18.2	0	1	315	0.00	30.031 
06:30	26.0	26.0	26.0	72	18.2	0	2	315	0.00	30.035 
06:35	26.0	26.0	26.0	72	18.2	0	2	292	0.00	30.035 
06:40	25.8	25.8	25.8	72	18.0	1	4	315	0.00	30.035 
06:45	25.8	25.8	25.8	72	18.0	1	2	292	0.00	30.042 
06:50	25.8	25.8	25.8	71	17.7	1	3	248	0.00	30.042 
06:55	25.8	25.8	25.8	71	17.7	1	2	248	0.00	30.042 
07:00	25.8	25.8	25.8	71	17.7	1	3	248	0.00	30.037 
07:05	25.7	25.7	25.7	71	17.6	1	4	248	0.00	30.037 
07:10	25.7	25.7	25.7	71	17.6	0	2	248	0.00	30.037 
07:15	25.7	25.7	25.7	72	17.9	0	2	248	0.00	30.049 
07:20	25.7	25.7	25.7	73	18.3	0	3	248	0.00	30.049 
07:25	25.7	25.7	25.7	73	18.3	1	3	248	0.00	30.049 
07:30	25.7	25.7	25.7	75	18.9	1	2	225	0.00	30.050 
07:35	25.6	25.6	25.6	75	18.8	1	3	248	0.00	30.050 
07:40	25.4	25.4	25.4	76	18.9	0	2	248	0.00	30.050 
07:45	25.4	25.4	25.4	76	18.9	1	4	248	0.00	30.053 
07:50	25.3	25.3	25.3	77	19.1	1	4	248	0.00	30.053 
07:55	25.3	25.3	25.3	77	19.1	1	3	248	0.00	30.053 
08:00	25.3	25.3	25.3	77	19.1	1	3	248	0.00	30.066 
08:05	25.3	25.3	25.3	77	19.1	1	2	248	0.00	30.066 
08:10	25.1	25.1	25.1	77	18.9	1	3	248	0.00	30.066 
08:15	25.1	25.1	25.1	77	18.9	1	3	248	0.00	30.071 
08:20	25.1	25.1	25.1	77	18.9	1	4	248	0.00	30.071 
08:25	25.1	25.1	25.1	77	18.9	2	6	248	0.00	30.071 
08:30	25.1	25.1	25.1	77	18.9	1	2	248	0.00	30.068 
08:35	25.1	25.1	25.1	77	18.9	1	4	248	0.00	30.068 
08:40	25.3	25.3	25.3	77	19.1	1	5	270	0.00	30.068 
08:45	25.3	25.3	25.3	76	18.8	2	4	248	0.00	30.079 
08:50	25.3	25.3	25.3	76	18.8	2	6	248	0.00	30.079 
08:55	25.3	25.3	25.3	76	18.8	2	4	248	0.00	30.079 
09:00	25.3	25.3	25.3	77	19.1	1	4	248	0.00	30.082 
09:05	25.3	25.3	25.3	77	19.1	1	4	248	0.00	30.082 
09:10	25.4	25.4	25.4	77	19.2	1	5	225	0.00	30.082 
09:15	25.4	25.4	25.4	76	18.9	2	6	248	0.00	30.084 
09:20	25.4	25.4	25.4	76	18.9	1	4	270	0.00	30.084 
09:25	25.4	25.4	25.4	76	18.9	2	4	248	0.00	30.084 
09:30	25.6	25.6	25.6	75	18.8	1	3	248	0.00	30.094 
09:35	25.8	25.8	25.8	75	19.0	2	5	248	0.00	30.094 
09:40	26.1	26.1	26.1	75	19.3	1	2	248	0.00	30.094 
09:45	26.3	26.3	26.3	74	19.2	1	3	248	0.00	30.098 
09:50	26.4	26.4	26.4	74	19.3	1	3	248	0.00	30.098 
09:55	26.7	26.7	26.7	74	19.5	1	3	248	0.00	30.098 
10:00	26.9	26.9	26.9	73	19.4	1	2	248	0.00	30.098 
10:05	27.2	27.2	27.2	73	19.7	0	2	270	0.00	30.098 
10:10	27.5	27.5	27.5	73	20.0	1	3	248	0.00	30.098 
10:15	27.9	27.9	27.9	73	20.4	1	3	248	0.00	30.097 
10:20	28.4	28.4	28.4	71	20.2	2	5	248	0.00	30.097 
10:25	28.5	28.5	28.5	70	20.0	2	4	248	0.00	30.097 
10:30	28.8	28.8	28.8	70	20.3	1	3	248	0.00	30.101 
10:35	29.3	29.3	29.3	70	20.8	1	4	248	0.00	30.101 
10:40	29.5	29.5	29.5	69	20.6	2	4	248	0.00	30.101 
10:45	29.5	29.5	29.5	69	20.6	2	4	225	0.00	30.106 
10:50	29.7	29.7	29.7	69	20.8	1	4	270	0.00	30.106 
10:55	30.0	30.0	30.0	68	20.7	1	3	248	0.00	30.106 
11:00	30.1	30.1	30.1	68	20.8	1	3	248	0.00	30.107 
11:05	30.4	30.4	30.4	68	21.1	1	2	248	0.00	30.107 
11:10	30.7	30.7	30.7	67	21.1	1	3	248	0.00	30.107 
11:15	30.9	30.9	30.9	67	21.3	1	3	248	0.00	30.109 
11:20	31.2	31.2	31.2	67	21.5	1	2	248	0.00	30.109 
11:25	31.5	31.5	31.5	66	21.5	1	3	315	0.00	30.109 
11:30	31.8	31.8	31.8	65	21.4	1	4	248	0.00	30.109 
11:35	31.8	31.8	31.8	65	21.4	1	3	270	0.00	30.109 
11:40	32.2	32.2	32.2	65	21.8	1	3	248	0.00	30.109 
11:45	32.4	32.4	32.4	64	21.6	1	4	315	0.00	30.112 
11:50	32.8	32.8	32.8	63	21.6	1	4	270	0.00	30.112 
11:55	33.1	33.1	33.1	63	21.9	1	4	248	0.01	30.112 
12:00	33.1	33.1	33.1	61	21.1	2	4	248	0.00	30.120 
12:05	33.2	33.2	33.2	62	21.6	1	5	248	0.00	30.120 
12:10	33.2	33.2	33.2	61	21.2	1	3	248	0.00	30.120 
12:15	33.2	33.2	33.2	62	21.6	2	4	248	0.00	30.122 
12:20	33.4	33.4	33.4	61	21.4	1	3	270	0.00	30.122 
12:25	33.5	33.5	33.5	61	21.5	1	4	248	0.00	30.122 
12:30	34.0	34.0	34.0	60	21.6	1	4	270	0.00	30.120 
12:35	33.8	33.8	33.8	60	21.4	1	5	338	0.00	30.120 
12:40	33.1	33.1	33.1	60	20.7	1	4	338	0.00	30.120 
12:45	32.9	32.9	32.9	62	21.3	1	2	248	0.00	30.120 
12:50	33.5	33.5	33.5	63	22.3	2	6	248	0.00	30.120 
12:55	34.0	34.0	34.0	62	22.4	1	4	248	0.00	30.120 
13:00	34.0	34.0	34.0	59	21.2	1	3	315	0.00	30.116 
13:05	34.0	34.0	34.0	61	22.0	1	4	248	0.00	30.116 
13:10	34.7	34.7	34.7	60	22.3	2	6	248	0.00	30.116 
13:15	35.0	35.0	35.0	58	21.7	2	4	248	0.00	30.117 
13:20	35.2	35.2	35.2	58	21.9	1	4	270	0.00	30.117 
13:25	35.3	35.3	35.3	58	22.0	2	5	248	0.00	30.117 
13:30	35.5	35.5	35.5	59	22.6	2	4	248	0.01	30.114 
13:35	35.6	35.6	35.6	58	22.3	2	6	248	0.00	30.114 
13:40	35.8	35.8	35.8	57	22.1	2	3	248	0.00	30.114 
13:45	35.8	35.8	35.8	58	22.5	1	4	248	0.00	30.113 
13:50	35.9	35.9	35.9	58	22.6	1	4	248	0.00	30.113 
13:55	35.8	35.8	35.8	56	21.7	1	4	248	0.00	30.113 
14:00	35.6	35.6	35.6	58	22.3	1	4	248	0.00	30.108 
14:05	35.6	35.6	35.6	58	22.3	1	3	248	0.00	30.108 
14:10	35.3	35.3	35.3	57	21.6	1	3	248	0.00	30.108 
14:15	35.0	35.0	35.0	58	21.7	1	4	248	0.00	30.106 
14:20	35.0	35.0	35.0	59	22.1	1	4	248	0.00	30.106 
14:25	35.5	35.5	35.5	59	22.6	1	4	248	0.00	30.106 
14:30	35.6	35.6	35.6	58	22.3	1	5	270	0.00	30.104 
14:35	35.5	35.5	35.5	58	22.2	1	2	292	0.00	30.104 
14:40	35.5	35.5	35.5	57	21.8	1	2	292	0.00	30.104 
14:45	35.8	35.8	35.8	58	22.5	1	3	292	0.00	30.104 
14:50	35.9	35.9	35.9	58	22.6	1	4	270	0.00	30.104 
14:55	35.8	35.8	35.8	57	22.1	0	3	338	0.00	30.104 
15:00	36.2	36.2	36.2	58	22.9	1	3	225	0.00	30.103 
15:05	36.6	36.6	36.6	56	22.4	1	4	248	0.00	30.103 
15:10	36.2	36.2	36.2	55	21.6	1	4	315	0.00	30.103 
15:15	35.9	35.9	35.9	56	21.8	1	3	270	0.00	30.104 
15:20	35.9	35.9	35.9	56	21.8	1	3	292	0.00	30.104 
15:25	36.3	36.3	36.3	56	22.1	0	3	270	0.00	30.104 
15:30	36.9	36.9	36.9	56	22.7	2	4	315	0.00	30.108 
15:35	37.2	37.2	37.2	54	22.1	2	5	270	0.00	30.108 
15:40	36.8	36.8	36.8	55	22.2	1	3	315	0.00	30.108 
15:45	36.6	36.6	36.6	55	22.0	1	4	292	0.00	30.115 
15:50	36.6	36.6	36.6	55	22.0	1	2	248	0.00	30.115 
15:55	36.6	36.6	36.6	55	22.0	1	4	248	0.00	30.115 
16:00	36.6	36.6	36.6	56	22.4	1	5	292	0.00	30.117 
16:05	36.8	36.8	36.8	56	22.6	1	3	270	0.00	30.117 
16:10	37.0	37.0	37.0	55	22.4	1	3	248	0.00	30.117 
16:15	36.9	36.9	36.9	54	21.8	1	3	315	0.00	30.120 
16:20	36.2	36.2	36.2	55	21.6	1	3	315	0.00	30.120 
16:25	35.8	35.8	35.8	56	21.7	0	2	315	0.00	30.120 
16:30	35.5	35.5	35.5	56	21.4	0	2	315	0.00	30.121 
16:35	35.5	35.5	35.5	57	21.8	0	2	315	0.00	30.121 
16:40	35.6	35.6	35.6	57	21.9	0	2	315	0.00	30.121 
16:45	35.8	35.8	35.8	57	22.1	0	2	315	0.00	30.121 
16:50	36.2	36.2	36.2	57	22.5	0	2	315	0.00	30.121 
16:55	36.5	36.5	36.5	55	21.9	1	2	315	0.00	30.121 
17:00	36.6	36.6	36.6	54	21.5	1	3	315	0.00	30.121 
17:05	36.6	36.6	36.6	54	21.5	1	3	248	0.00	30.121 
17:10	36.6	36.6	36.6	54	21.5	0	1	248	0.00	30.121 
17:15	36.3	36.3	36.3	54	21.3	1	5	248	0.00	30.122 
17:20	35.9	35.9	35.9	54	20.9	1	3	338	0.00	30.122 
17:25	35.8	35.8	35.8	55	21.2	0	1	338	0.00	30.122 
17:30	35.5	35.5	35.5	55	21.0	0	1	338	0.00	30.128 
17:35	35.5	35.5	35.5	56	21.4	0	1	338	0.00	30.128 
17:40	35.3	35.3	35.3	56	21.2	0	1	338	0.00	30.128 
17:45	35.2	35.2	35.2	57	21.5	0	1	338	0.00	30.136 
17:50	35.2	35.2	35.2	56	21.1	0	2	338	0.00	30.136 
17:55	35.0	35.0	35.0	57	21.3	0	1	338	0.00	30.136 
18:00	34.9	34.9	34.9	57	21.2	0	1	338	0.00	30.138 
18:05	34.7	34.7	34.7	58	21.5	0	1	338	0.00	30.138 
18:10	34.4	34.4	34.4	58	21.2	0	1	338	0.00	30.138 
18:15	34.3	34.3	34.3	58	21.1	0	1	338	0.00	30.142 
18:20	34.0	34.0	34.0	58	20.8	0	0	---	0.00	30.142 
18:25	33.8	33.8	33.8	59	21.0	0	0	---	0.00	30.142 
18:30	33.5	33.5	33.5	59	20.7	0	0	---	0.00	30.145 
18:35	33.2	33.2	33.2	60	20.8	0	0	---	0.00	30.145 
18:40	32.9	32.9	32.9	60	20.6	0	0	---	0.00	30.145 
18:45	32.5	32.5	32.5	61	20.6	0	0	---	0.00	30.150 
18:50	32.1	32.1	32.1	61	20.2	0	0	---	0.00	30.150 
18:55	31.6	31.6	31.6	62	20.1	0	0	---	0.00	30.150 
19:00	31.2	31.2	31.2	63	20.1	0	0	---	0.00	30.154 
19:05	30.7	30.7	30.7	64	20.0	0	0	---	0.00	30.154 
19:10	30.4	30.4	30.4	65	20.1	0	0	---	0.00	30.154 
19:15	30.1	30.1	30.1	65	19.8	0	0	---	0.00	30.160 
19:20	29.7	29.7	29.7	65	19.4	0	0	---	0.00	30.160 
19:25	29.4	29.4	29.4	68	20.2	0	0	---	0.00	30.160 
19:30	29.0	29.0	29.0	68	19.8	0	0	---	0.00	30.168 
19:35	28.7	28.7	28.7	69	19.8	0	0	---	0.00	30.168 
19:40	28.2	28.2	28.2	69	19.4	0	0	---	0.00	30.168 
19:45	27.9	27.9	27.9	70	19.4	0	0	---	0.00	30.171 
19:50	27.6	27.6	27.6	71	19.4	0	0	---	0.00	30.171 
19:55	27.5	27.5	27.5	72	19.7	0	0	---	0.00	30.171 
20:00	27.3	27.3	27.3	73	19.8	0	0	---	0.00	30.177 
20:05	27.2	27.2	27.2	74	20.0	0	0	---	0.00	30.177 
20:10	27.0	27.0	27.0	74	19.8	0	0	---	0.00	30.177 
20:15	26.9	26.9	26.9	75	20.1	0	0	---	0.00	30.178 
20:20	26.6	26.6	26.6	75	19.8	0	0	---	0.00	30.178 
20:25	26.4	26.4	26.4	76	19.9	0	0	---	0.00	30.178 
20:30	26.1	26.1	26.1	76	19.6	0	0	---	0.00	30.179 
20:35	26.0	26.0	26.0	77	19.8	0	0	---	0.00	30.179 
20:40	25.8	25.8	25.8	77	19.6	0	0	---	0.00	30.179 
20:45	25.8	25.8	25.8	78	19.9	0	0	---	0.00	30.180 
20:50	25.8	25.8	25.8	79	20.2	0	0	---	0.00	30.180 
20:55	25.7	25.7	25.7	79	20.1	0	0	---	0.00	30.180 
21:00	25.4	25.4	25.4	79	19.8	0	0	---	0.00	30.180 
21:05	25.3	25.3	25.3	79	19.7	0	0	---	0.00	30.180 
21:10	25.1	25.1	25.1	80	19.8	0	0	---	0.00	30.180 
21:15	25.1	25.1	25.1	80	19.8	0	0	---	0.00	30.177 
21:20	24.8	24.8	24.8	80	19.5	0	0	---	0.00	30.177 
21:25	24.7	24.7	24.7	81	19.7	0	0	---	0.00	30.177 
21:30	24.8	24.8	24.8	81	19.8	0	0	---	0.00	30.177 
21:35	24.7	24.7	24.7	81	19.7	0	0	---	0.00	30.177 
21:40	24.5	24.5	24.5	81	19.5	0	0	---	0.00	30.177 
21:45	24.2	24.2	24.2	81	19.2	0	0	---	0.00	30.177 
21:50	24.4	24.4	24.4	82	19.7	0	0	---	0.00	30.177 
21:55	24.4	24.4	24.4	82	19.7	0	0	---	0.00	30.177 
22:00	24.2	24.2	24.2	82	19.5	0	0	---	0.00	30.180 
22:05	24.1	24.1	24.1	83	19.7	0	0	---	0.00	30.180 
22:10	23.8	23.8	23.8	83	19.4	0	0	---	0.00	30.180 
22:15	23.5	23.5	23.5	83	19.1	0	0	---	0.00	30.177 
22:20	23.3	23.3	23.3	83	18.9	0	0	---	0.00	30.177 
22:25	23.2	23.2	23.2	84	19.1	0	0	---	0.00	30.177 
22:30	23.0	23.0	23.0	84	18.9	0	0	---	0.00	30.179 
22:35	23.0	23.0	23.0	84	18.9	0	0	---	0.00	30.179 
22:40	23.0	23.0	23.0	84	18.9	0	0	---	0.00	30.179 
22:45	22.7	22.7	22.7	84	18.6	0	0	---	0.00	30.179 
22:50	22.7	22.7	22.7	84	18.6	0	0	---	0.00	30.179 
22:55	22.5	22.5	22.5	84	18.4	0	0	---	0.00	30.179 
23:00	22.5	22.5	22.5	84	18.4	0	0	---	0.00	30.181 
23:05	22.4	22.4	22.4	85	18.6	0	0	---	0.00	30.181 
23:10	22.4	22.4	22.4	85	18.6	0	0	---	0.00	30.181 
23:15	22.2	22.2	22.2	85	18.4	0	0	---	0.00	30.178 
23:20	22.1	22.1	22.1	85	18.3	0	0	---	0.00	30.178 
23:25	22.1	22.1	22.1	85	18.3	0	0	---	0.00	30.178 
23:30	21.9	21.9	21.9	85	18.1	0	0	---	0.00	30.178 
23:35	21.9	21.9	21.9	85	18.1	0	0	---	0.00	30.178 
23:40	21.8	21.8	21.8	86	18.3	0	0	---	0.00	30.178 
23:45	21.8	21.8	21.8	86	18.3	0	0	---	0.00	30.183 
23:50	21.8	21.8	21.8	86	18.3	0	0	---	0.00	30.183 
23:55	21.6	21.6	21.6	86	18.1	0	0	---	0.00	30.183 

CoCoRaHS
IN-AL-39
A2 Web Hosting
Creative Commons License
GoDaddy
search engine by freefind advanced

loaded 2018-11-13 23:25:25 • last modified 2010-11-18 10:43:29
Privacy PolicyDisclaimer
• wx.awcolley.com is powered by PmWiki v.2002016 •
• all content (unless otherwise noted) © 2018 A W Colley